sensor_id;sensor_type;location;lat;lon;timestamp;temperature;humidity
18450;DHT22;9354;50.194;7.690;2023-03-23T00:00:18;12.80;99.90
18450;DHT22;9354;50.194;7.690;2023-03-23T00:02:47;12.80;99.90
18450;DHT22;9354;50.194;7.690;2023-03-23T00:05:16;12.70;99.90
18450;DHT22;9354;50.194;7.690;2023-03-23T00:07:43;12.70;99.90
18450;DHT22;9354;50.194;7.690;2023-03-23T00:10:11;12.60;99.90
18450;DHT22;9354;50.194;7.690;2023-03-23T00:12:38;12.60;99.90
18450;DHT22;9354;50.194;7.690;2023-03-23T00:15:08;12.50;99.90
18450;DHT22;9354;50.194;7.690;2023-03-23T00:17:39;12.40;99.90
18450;DHT22;9354;50.194;7.690;2023-03-23T00:20:07;12.40;99.90
18450;DHT22;9354;50.194;7.690;2023-03-23T00:22:38;12.30;99.90
18450;DHT22;9354;50.194;7.690;2023-03-23T00:25:07;12.30;99.90
18450;DHT22;9354;50.194;7.690;2023-03-23T00:27:35;12.30;99.90
18450;DHT22;9354;50.194;7.690;2023-03-23T00:30:03;12.20;99.90
18450;DHT22;9354;50.194;7.690;2023-03-23T00:32:31;12.20;99.90
18450;DHT22;9354;50.194;7.690;2023-03-23T00:34:58;12.10;99.90
18450;DHT22;9354;50.194;7.690;2023-03-23T00:37:26;12.10;99.90
18450;DHT22;9354;50.194;7.690;2023-03-23T00:39:55;12.00;99.90
18450;DHT22;9354;50.194;7.690;2023-03-23T00:42:23;12.00;99.90
18450;DHT22;9354;50.194;7.690;2023-03-23T00:44:52;11.90;99.90
18450;DHT22;9354;50.194;7.690;2023-03-23T00:47:26;11.90;99.90
18450;DHT22;9354;50.194;7.690;2023-03-23T00:49:53;11.90;99.90
18450;DHT22;9354;50.194;7.690;2023-03-23T00:52:22;11.80;99.90
18450;DHT22;9354;50.194;7.690;2023-03-23T00:54:49;11.80;99.90
18450;DHT22;9354;50.194;7.690;2023-03-23T00:57:18;11.80;99.90
18450;DHT22;9354;50.194;7.690;2023-03-23T00:59:46;11.80;99.90
18450;DHT22;9354;50.194;7.690;2023-03-23T01:02:13;11.80;99.90
18450;DHT22;9354;50.194;7.690;2023-03-23T01:04:41;11.80;99.90
18450;DHT22;9354;50.194;7.690;2023-03-23T01:07:11;11.70;99.90
18450;DHT22;9354;50.194;7.690;2023-03-23T01:09:39;11.70;99.90
18450;DHT22;9354;50.194;7.690;2023-03-23T01:12:11;11.70;99.90
18450;DHT22;9354;50.194;7.690;2023-03-23T01:14:40;11.70;99.90
18450;DHT22;9354;50.194;7.690;2023-03-23T01:17:07;11.70;99.90
18450;DHT22;9354;50.194;7.690;2023-03-23T01:19:35;11.60;99.90
18450;DHT22;9354;50.194;7.690;2023-03-23T01:22:03;11.60;99.90
18450;DHT22;9354;50.194;7.690;2023-03-23T01:24:31;11.60;99.90
18450;DHT22;9354;50.194;7.690;2023-03-23T01:26:58;11.60;99.90
18450;DHT22;9354;50.194;7.690;2023-03-23T01:29:32;11.60;99.90
18450;DHT22;9354;50.194;7.690;2023-03-23T01:32:01;11.60;99.90
18450;DHT22;9354;50.194;7.690;2023-03-23T01:34:28;11.60;99.90
18450;DHT22;9354;50.194;7.690;2023-03-23T01:36:56;11.60;99.90
18450;DHT22;9354;50.194;7.690;2023-03-23T01:39:23;11.60;99.90
18450;DHT22;9354;50.194;7.690;2023-03-23T01:41:50;11.60;99.90
18450;DHT22;9354;50.194;7.690;2023-03-23T01:47:23;11.70;99.90
18450;DHT22;9354;50.194;7.690;2023-03-23T01:49:52;11.70;99.90
18450;DHT22;9354;50.194;7.690;2023-03-23T01:52:23;11.70;99.90
18450;DHT22;9354;50.194;7.690;2023-03-23T01:54:53;11.70;99.90
18450;DHT22;9354;50.194;7.690;2023-03-23T01:57:24;11.80;99.90
18450;DHT22;9354;50.194;7.690;2023-03-23T01:59:53;11.80;99.90
18450;DHT22;9354;50.194;7.690;2023-03-23T02:02:25;11.90;99.90
18450;DHT22;9354;50.194;7.690;2023-03-23T02:04:57;11.90;99.90
18450;DHT22;9354;50.194;7.690;2023-03-23T02:07:26;11.90;99.90
18450;DHT22;9354;50.194;7.690;2023-03-23T02:09:54;12.00;99.90
18450;DHT22;9354;50.194;7.690;2023-03-23T02:12:21;12.00;99.90
18450;DHT22;9354;50.194;7.690;2023-03-23T02:14:48;12.10;99.90
18450;DHT22;9354;50.194;7.690;2023-03-23T02:17:21;12.10;99.90
18450;DHT22;9354;50.194;7.690;2023-03-23T02:20:22;12.10;99.90
18450;DHT22;9354;50.194;7.690;2023-03-23T02:23:13;12.10;99.90
18450;DHT22;9354;50.194;7.690;2023-03-23T02:25:55;12.10;99.90
18450;DHT22;9354;50.194;7.690;2023-03-23T02:31:42;12.10;99.90
18450;DHT22;9354;50.194;7.690;2023-03-23T02:34:16;12.00;99.90
18450;DHT22;9354;50.194;7.690;2023-03-23T02:36:46;12.00;99.90
18450;DHT22;9354;50.194;7.690;2023-03-23T02:39:19;11.90;99.90
18450;DHT22;9354;50.194;7.690;2023-03-23T02:41:51;11.90;99.90
18450;DHT22;9354;50.194;7.690;2023-03-23T02:44:21;11.90;99.90
18450;DHT22;9354;50.194;7.690;2023-03-23T02:46:49;11.80;99.90
18450;DHT22;9354;50.194;7.690;2023-03-23T02:49:19;11.80;99.90
18450;DHT22;9354;50.194;7.690;2023-03-23T02:51:48;11.70;99.90
18450;DHT22;9354;50.194;7.690;2023-03-23T02:54:18;11.70;99.90
18450;DHT22;9354;50.194;7.690;2023-03-23T02:56:48;11.70;99.90
18450;DHT22;9354;50.194;7.690;2023-03-23T02:59:18;11.60;99.90
18450;DHT22;9354;50.194;7.690;2023-03-23T03:01:55;11.60;99.90
18450;DHT22;9354;50.194;7.690;2023-03-23T03:04:27;11.60;99.90
18450;DHT22;9354;50.194;7.690;2023-03-23T03:07:16;11.60;99.90
18450;DHT22;9354;50.194;7.690;2023-03-23T03:09:50;11.60;99.90
18450;DHT22;9354;50.194;7.690;2023-03-23T03:12:26;11.60;99.90
18450;DHT22;9354;50.194;7.690;2023-03-23T03:15:06;11.60;99.90
18450;DHT22;9354;50.194;7.690;2023-03-23T03:17:40;11.60;99.90
18450;DHT22;9354;50.194;7.690;2023-03-23T03:20:11;11.60;99.90
18450;DHT22;9354;50.194;7.690;2023-03-23T03:22:41;11.60;99.90
18450;DHT22;9354;50.194;7.690;2023-03-23T03:25:11;11.60;99.90
18450;DHT22;9354;50.194;7.690;2023-03-23T03:27:43;11.60;99.90
18450;DHT22;9354;50.194;7.690;2023-03-23T03:30:20;11.60;99.90
18450;DHT22;9354;50.194;7.690;2023-03-23T03:32:51;11.60;99.90
18450;DHT22;9354;50.194;7.690;2023-03-23T03:35:23;11.60;99.90
18450;DHT22;9354;50.194;7.690;2023-03-23T03:37:51;11.50;99.90
18450;DHT22;9354;50.194;7.690;2023-03-23T03:40:20;11.60;99.90
18450;DHT22;9354;50.194;7.690;2023-03-23T03:42:48;11.50;99.90
18450;DHT22;9354;50.194;7.690;2023-03-23T03:45:18;11.50;99.90
18450;DHT22;9354;50.194;7.690;2023-03-23T03:47:46;11.50;99.90
18450;DHT22;9354;50.194;7.690;2023-03-23T03:50:13;11.50;99.90
18450;DHT22;9354;50.194;7.690;2023-03-23T03:52:43;11.50;99.90
18450;DHT22;9354;50.194;7.690;2023-03-23T03:55:11;11.50;99.90
18450;DHT22;9354;50.194;7.690;2023-03-23T03:57:39;11.50;99.90
18450;DHT22;9354;50.194;7.690;2023-03-23T04:00:08;11.50;99.90
18450;DHT22;9354;50.194;7.690;2023-03-23T04:02:41;11.50;99.90
18450;DHT22;9354;50.194;7.690;2023-03-23T04:05:09;11.40;99.90
18450;DHT22;9354;50.194;7.690;2023-03-23T04:07:37;11.40;99.90
18450;DHT22;9354;50.194;7.690;2023-03-23T04:10:08;11.40;99.90
18450;DHT22;9354;50.194;7.690;2023-03-23T04:12:37;11.30;99.90
18450;DHT22;9354;50.194;7.690;2023-03-23T04:15:05;11.30;99.90
18450;DHT22;9354;50.194;7.690;2023-03-23T04:17:33;11.30;99.90
18450;DHT22;9354;50.194;7.690;2023-03-23T04:20:02;11.30;99.90
18450;DHT22;9354;50.194;7.690;2023-03-23T04:22:33;11.20;99.90
18450;DHT22;9354;50.194;7.690;2023-03-23T04:25:01;11.20;99.90
18450;DHT22;9354;50.194;7.690;2023-03-23T04:27:33;11.20;99.90
18450;DHT22;9354;50.194;7.690;2023-03-23T04:30:00;11.20;99.90
18450;DHT22;9354;50.194;7.690;2023-03-23T04:32:28;11.20;99.90
18450;DHT22;9354;50.194;7.690;2023-03-23T04:34:57;11.20;99.90
18450;DHT22;9354;50.194;7.690;2023-03-23T04:37:25;11.20;99.90
18450;DHT22;9354;50.194;7.690;2023-03-23T04:39:55;11.20;99.90
18450;DHT22;9354;50.194;7.690;2023-03-23T04:42:27;11.20;99.90
18450;DHT22;9354;50.194;7.690;2023-03-23T04:44:59;11.30;99.90
18450;DHT22;9354;50.194;7.690;2023-03-23T04:47:32;11.20;99.90
18450;DHT22;9354;50.194;7.690;2023-03-23T04:50:00;11.20;99.90
18450;DHT22;9354;50.194;7.690;2023-03-23T04:52:28;11.30;99.90
18450;DHT22;9354;50.194;7.690;2023-03-23T04:54:55;11.30;99.90
18450;DHT22;9354;50.194;7.690;2023-03-23T04:57:22;11.30;99.90
18450;DHT22;9354;50.194;7.690;2023-03-23T04:59:51;11.30;99.90
18450;DHT22;9354;50.194;7.690;2023-03-23T05:02:20;11.30;99.90
18450;DHT22;9354;50.194;7.690;2023-03-23T05:04:47;11.30;99.90
18450;DHT22;9354;50.194;7.690;2023-03-23T05:07:15;11.30;99.90
18450;DHT22;9354;50.194;7.690;2023-03-23T05:09:46;11.30;99.90
18450;DHT22;9354;50.194;7.690;2023-03-23T05:12:14;11.30;99.90
18450;DHT22;9354;50.194;7.690;2023-03-23T05:14:42;11.40;99.90
18450;DHT22;9354;50.194;7.690;2023-03-23T05:17:09;11.40;99.90
18450;DHT22;9354;50.194;7.690;2023-03-23T05:19:40;11.40;99.90
18450;DHT22;9354;50.194;7.690;2023-03-23T05:22:09;11.40;99.90
18450;DHT22;9354;50.194;7.690;2023-03-23T05:24:38;11.40;99.90
18450;DHT22;9354;50.194;7.690;2023-03-23T05:27:06;11.40;99.90
18450;DHT22;9354;50.194;7.690;2023-03-23T05:29:34;11.40;99.90
18450;DHT22;9354;50.194;7.690;2023-03-23T05:32:02;11.40;99.90
18450;DHT22;9354;50.194;7.690;2023-03-23T05:34:29;11.40;99.90
18450;DHT22;9354;50.194;7.690;2023-03-23T05:36:59;11.40;99.90
18450;DHT22;9354;50.194;7.690;2023-03-23T05:39:27;11.40;99.90
18450;DHT22;9354;50.194;7.690;2023-03-23T05:41:55;11.40;99.90
18450;DHT22;9354;50.194;7.690;2023-03-23T05:44:23;11.40;99.90
18450;DHT22;9354;50.194;7.690;2023-03-23T05:46:50;11.40;99.90
18450;DHT22;9354;50.194;7.690;2023-03-23T05:49:18;11.40;99.90
18450;DHT22;9354;50.194;7.690;2023-03-23T05:51:46;11.40;99.90
18450;DHT22;9354;50.194;7.690;2023-03-23T05:54:15;11.40;99.90
18450;DHT22;9354;50.194;7.690;2023-03-23T05:56:42;11.40;99.90
18450;DHT22;9354;50.194;7.690;2023-03-23T05:59:10;11.30;99.90
18450;DHT22;9354;50.194;7.690;2023-03-23T06:01:37;11.30;99.90
18450;DHT22;9354;50.194;7.690;2023-03-23T06:04:05;11.30;99.90
18450;DHT22;9354;50.194;7.690;2023-03-23T06:06:32;11.40;99.90
18450;DHT22;9354;50.194;7.690;2023-03-23T06:09:00;11.40;99.90
18450;DHT22;9354;50.194;7.690;2023-03-23T06:11:28;11.40;99.90
18450;DHT22;9354;50.194;7.690;2023-03-23T06:13:56;11.40;99.90
18450;DHT22;9354;50.194;7.690;2023-03-23T06:16:24;11.40;99.90
18450;DHT22;9354;50.194;7.690;2023-03-23T06:18:51;11.50;99.90
18450;DHT22;9354;50.194;7.690;2023-03-23T06:21:18;11.50;99.90
18450;DHT22;9354;50.194;7.690;2023-03-23T06:23:47;11.50;99.90
18450;DHT22;9354;50.194;7.690;2023-03-23T06:26:18;11.50;99.90
18450;DHT22;9354;50.194;7.690;2023-03-23T06:28:47;11.50;99.90
18450;DHT22;9354;50.194;7.690;2023-03-23T06:31:15;11.60;99.90
18450;DHT22;9354;50.194;7.690;2023-03-23T06:33:43;11.60;99.90
18450;DHT22;9354;50.194;7.690;2023-03-23T06:36:10;11.60;99.90
18450;DHT22;9354;50.194;7.690;2023-03-23T06:38:38;11.60;99.90
18450;DHT22;9354;50.194;7.690;2023-03-23T06:41:05;11.60;99.90
18450;DHT22;9354;50.194;7.690;2023-03-23T06:43:33;11.60;99.90
18450;DHT22;9354;50.194;7.690;2023-03-23T06:46:03;11.60;99.90
18450;DHT22;9354;50.194;7.690;2023-03-23T06:48:31;11.60;99.90
18450;DHT22;9354;50.194;7.690;2023-03-23T06:50:59;11.60;99.90
18450;DHT22;9354;50.194;7.690;2023-03-23T06:53:26;11.60;99.90
18450;DHT22;9354;50.194;7.690;2023-03-23T06:55:53;11.50;99.90
18450;DHT22;9354;50.194;7.690;2023-03-23T06:58:21;11.60;99.90
18450;DHT22;9354;50.194;7.690;2023-03-23T07:00:53;11.50;99.90
18450;DHT22;9354;50.194;7.690;2023-03-23T07:03:22;11.50;99.90
18450;DHT22;9354;50.194;7.690;2023-03-23T07:05:49;11.50;99.90
18450;DHT22;9354;50.194;7.690;2023-03-23T07:08:17;11.50;99.90
18450;DHT22;9354;50.194;7.690;2023-03-23T07:10:44;11.60;99.90
18450;DHT22;9354;50.194;7.690;2023-03-23T07:13:12;11.60;99.90
18450;DHT22;9354;50.194;7.690;2023-03-23T07:15:40;11.60;99.90
18450;DHT22;9354;50.194;7.690;2023-03-23T07:18:07;11.60;99.90
18450;DHT22;9354;50.194;7.690;2023-03-23T07:20:36;11.60;99.90
18450;DHT22;9354;50.194;7.690;2023-03-23T07:23:03;11.60;99.90
18450;DHT22;9354;50.194;7.690;2023-03-23T07:25:32;11.60;99.90
18450;DHT22;9354;50.194;7.690;2023-03-23T07:28:00;11.70;99.90
18450;DHT22;9354;50.194;7.690;2023-03-23T07:30:28;11.70;99.90
18450;DHT22;9354;50.194;7.690;2023-03-23T07:32:56;11.70;99.90
18450;DHT22;9354;50.194;7.690;2023-03-23T07:35:23;11.80;99.90
18450;DHT22;9354;50.194;7.690;2023-03-23T07:37:52;11.80;99.90
18450;DHT22;9354;50.194;7.690;2023-03-23T07:40:21;11.80;99.90
18450;DHT22;9354;50.194;7.690;2023-03-23T07:42:53;11.80;99.90
18450;DHT22;9354;50.194;7.690;2023-03-23T07:45:21;11.90;99.90
18450;DHT22;9354;50.194;7.690;2023-03-23T07:47:49;11.90;99.90
18450;DHT22;9354;50.194;7.690;2023-03-23T07:50:17;11.90;99.90
18450;DHT22;9354;50.194;7.690;2023-03-23T07:52:47;12.00;99.90
18450;DHT22;9354;50.194;7.690;2023-03-23T07:55:15;12.00;99.90
18450;DHT22;9354;50.194;7.690;2023-03-23T07:57:44;12.10;99.90
18450;DHT22;9354;50.194;7.690;2023-03-23T08:00:13;12.10;99.90
18450;DHT22;9354;50.194;7.690;2023-03-23T08:02:45;12.10;99.90
18450;DHT22;9354;50.194;7.690;2023-03-23T08:05:13;12.10;99.90
18450;DHT22;9354;50.194;7.690;2023-03-23T08:07:41;12.10;99.90
18450;DHT22;9354;50.194;7.690;2023-03-23T08:10:10;12.10;99.90
18450;DHT22;9354;50.194;7.690;2023-03-23T08:12:40;12.10;99.90
18450;DHT22;9354;50.194;7.690;2023-03-23T08:15:10;12.10;99.90
18450;DHT22;9354;50.194;7.690;2023-03-23T08:17:39;12.10;99.90
18450;DHT22;9354;50.194;7.690;2023-03-23T08:20:08;12.20;99.90
18450;DHT22;9354;50.194;7.690;2023-03-23T08:22:39;12.20;99.90
18450;DHT22;9354;50.194;7.690;2023-03-23T08:25:09;12.20;99.90
18450;DHT22;9354;50.194;7.690;2023-03-23T08:27:37;12.30;99.90
18450;DHT22;9354;50.194;7.690;2023-03-23T08:30:12;12.30;99.90
18450;DHT22;9354;50.194;7.690;2023-03-23T08:32:40;12.40;99.90
18450;DHT22;9354;50.194;7.690;2023-03-23T08:35:09;12.40;99.90
18450;DHT22;9354;50.194;7.690;2023-03-23T08:37:37;12.40;99.90
18450;DHT22;9354;50.194;7.690;2023-03-23T08:40:06;12.40;99.90
18450;DHT22;9354;50.194;7.690;2023-03-23T08:42:35;12.40;99.90
18450;DHT22;9354;50.194;7.690;2023-03-23T08:45:04;12.50;99.90
18450;DHT22;9354;50.194;7.690;2023-03-23T08:47:34;12.50;99.90
18450;DHT22;9354;50.194;7.690;2023-03-23T08:50:02;12.60;99.90
18450;DHT22;9354;50.194;7.690;2023-03-23T08:52:30;12.60;99.90
18450;DHT22;9354;50.194;7.690;2023-03-23T08:54:57;12.70;99.90
18450;DHT22;9354;50.194;7.690;2023-03-23T08:57:25;12.80;99.90
18450;DHT22;9354;50.194;7.690;2023-03-23T08:59:53;12.80;99.90
18450;DHT22;9354;50.194;7.690;2023-03-23T09:02:26;12.80;99.90
18450;DHT22;9354;50.194;7.690;2023-03-23T09:04:54;12.80;99.90
18450;DHT22;9354;50.194;7.690;2023-03-23T09:07:22;12.80;99.90
18450;DHT22;9354;50.194;7.690;2023-03-23T09:09:49;12.80;99.90
18450;DHT22;9354;50.194;7.690;2023-03-23T09:12:17;12.70;99.90
18450;DHT22;9354;50.194;7.690;2023-03-23T09:14:44;12.70;99.90
18450;DHT22;9354;50.194;7.690;2023-03-23T09:17:13;12.70;99.90
18450;DHT22;9354;50.194;7.690;2023-03-23T09:19:42;12.70;99.90
18450;DHT22;9354;50.194;7.690;2023-03-23T09:22:11;12.70;99.90
18450;DHT22;9354;50.194;7.690;2023-03-23T09:24:38;12.70;99.90
18450;DHT22;9354;50.194;7.690;2023-03-23T09:27:06;12.70;99.90
18450;DHT22;9354;50.194;7.690;2023-03-23T09:29:34;12.70;99.90
18450;DHT22;9354;50.194;7.690;2023-03-23T09:32:01;12.70;99.90
18450;DHT22;9354;50.194;7.690;2023-03-23T09:34:29;12.70;99.90
18450;DHT22;9354;50.194;7.690;2023-03-23T09:36:56;12.80;99.90
18450;DHT22;9354;50.194;7.690;2023-03-23T09:39:25;12.80;99.90
18450;DHT22;9354;50.194;7.690;2023-03-23T09:45:00;12.70;99.90
18450;DHT22;9354;50.194;7.690;2023-03-23T09:47:35;12.70;99.90
18450;DHT22;9354;50.194;7.690;2023-03-23T09:50:09;12.70;99.90
18450;DHT22;9354;50.194;7.690;2023-03-23T09:52:40;12.70;99.90
18450;DHT22;9354;50.194;7.690;2023-03-23T09:55:13;12.60;99.90
18450;DHT22;9354;50.194;7.690;2023-03-23T09:57:47;12.60;99.90
18450;DHT22;9354;50.194;7.690;2023-03-23T10:00:22;12.50;99.90
18450;DHT22;9354;50.194;7.690;2023-03-23T10:02:58;12.50;99.90
18450;DHT22;9354;50.194;7.690;2023-03-23T10:05:31;12.50;99.90
18450;DHT22;9354;50.194;7.690;2023-03-23T10:08:00;12.60;99.90
18450;DHT22;9354;50.194;7.690;2023-03-23T10:10:38;12.70;99.90
18450;DHT22;9354;50.194;7.690;2023-03-23T10:13:11;12.80;99.90
18450;DHT22;9354;50.194;7.690;2023-03-23T10:15:44;13.00;99.90
18450;DHT22;9354;50.194;7.690;2023-03-23T10:18:15;13.10;99.90
18450;DHT22;9354;50.194;7.690;2023-03-23T10:20:48;13.20;99.90
18450;DHT22;9354;50.194;7.690;2023-03-23T10:23:51;13.30;99.90
18450;DHT22;9354;50.194;7.690;2023-03-23T10:26:33;13.30;99.90
18450;DHT22;9354;50.194;7.690;2023-03-23T10:29:14;13.40;99.90
18450;DHT22;9354;50.194;7.690;2023-03-23T10:31:45;13.50;99.90
18450;DHT22;9354;50.194;7.690;2023-03-23T10:34:17;13.70;99.90
18450;DHT22;9354;50.194;7.690;2023-03-23T10:36:56;13.70;99.90
18450;DHT22;9354;50.194;7.690;2023-03-23T10:39:29;13.80;99.90
18450;DHT22;9354;50.194;7.690;2023-03-23T10:42:01;13.80;99.90
18450;DHT22;9354;50.194;7.690;2023-03-23T10:44:33;13.90;99.90
18450;DHT22;9354;50.194;7.690;2023-03-23T10:47:03;13.80;99.90
18450;DHT22;9354;50.194;7.690;2023-03-23T10:49:37;13.80;99.90
18450;DHT22;9354;50.194;7.690;2023-03-23T10:52:20;13.70;99.90
18450;DHT22;9354;50.194;7.690;2023-03-23T10:54:54;13.70;99.90
18450;DHT22;9354;50.194;7.690;2023-03-23T10:57:25;13.60;99.90
18450;DHT22;9354;50.194;7.690;2023-03-23T11:00:07;13.50;99.90
18450;DHT22;9354;50.194;7.690;2023-03-23T11:02:40;13.40;99.90
18450;DHT22;9354;50.194;7.690;2023-03-23T11:05:17;13.30;99.90
18450;DHT22;9354;50.194;7.690;2023-03-23T11:07:50;13.30;99.90
18450;DHT22;9354;50.194;7.690;2023-03-23T11:10:22;13.40;99.90
18450;DHT22;9354;50.194;7.690;2023-03-23T11:12:56;13.40;99.90
18450;DHT22;9354;50.194;7.690;2023-03-23T11:15:32;13.50;99.90
18450;DHT22;9354;50.194;7.690;2023-03-23T11:18:03;13.60;99.90
18450;DHT22;9354;50.194;7.690;2023-03-23T11:20:35;13.70;99.90
18450;DHT22;9354;50.194;7.690;2023-03-23T11:23:15;13.70;99.90
18450;DHT22;9354;50.194;7.690;2023-03-23T11:25:56;13.70;99.90
18450;DHT22;9354;50.194;7.690;2023-03-23T11:28:31;13.90;99.90
18450;DHT22;9354;50.194;7.690;2023-03-23T11:31:01;14.00;99.90
18450;DHT22;9354;50.194;7.690;2023-03-23T11:33:31;14.00;99.90
18450;DHT22;9354;50.194;7.690;2023-03-23T11:36:02;13.90;99.90
18450;DHT22;9354;50.194;7.690;2023-03-23T11:38:30;13.80;99.90
18450;DHT22;9354;50.194;7.690;2023-03-23T11:40:59;13.80;99.90
18450;DHT22;9354;50.194;7.690;2023-03-23T11:43:26;13.70;99.90
18450;DHT22;9354;50.194;7.690;2023-03-23T11:46:02;13.70;99.90
18450;DHT22;9354;50.194;7.690;2023-03-23T11:48:34;13.70;99.90
18450;DHT22;9354;50.194;7.690;2023-03-23T11:51:06;13.70;99.90
18450;DHT22;9354;50.194;7.690;2023-03-23T11:53:45;13.80;99.90
18450;DHT22;9354;50.194;7.690;2023-03-23T11:56:23;14.00;99.90
18450;DHT22;9354;50.194;7.690;2023-03-23T11:58:52;14.10;99.90
18450;DHT22;9354;50.194;7.690;2023-03-23T12:01:31;14.20;99.90
18450;DHT22;9354;50.194;7.690;2023-03-23T12:07:05;14.30;99.90
18450;DHT22;9354;50.194;7.690;2023-03-23T12:09:42;14.30;99.90
18450;DHT22;9354;50.194;7.690;2023-03-23T12:12:17;14.40;99.90
18450;DHT22;9354;50.194;7.690;2023-03-23T12:14:53;14.40;99.90
18450;DHT22;9354;50.194;7.690;2023-03-23T12:17:33;14.50;99.90
18450;DHT22;9354;50.194;7.690;2023-03-23T12:20:17;14.50;99.90
18450;DHT22;9354;50.194;7.690;2023-03-23T12:22:55;14.50;99.90
18450;DHT22;9354;50.194;7.690;2023-03-23T12:25:49;14.60;99.90
18450;DHT22;9354;50.194;7.690;2023-03-23T12:28:26;14.50;99.90
18450;DHT22;9354;50.194;7.690;2023-03-23T12:31:00;14.50;99.90
18450;DHT22;9354;50.194;7.690;2023-03-23T12:33:39;14.50;99.90
18450;DHT22;9354;50.194;7.690;2023-03-23T12:36:22;14.50;99.90
18450;DHT22;9354;50.194;7.690;2023-03-23T12:39:05;14.50;99.90
18450;DHT22;9354;50.194;7.690;2023-03-23T12:41:39;14.50;99.90
18450;DHT22;9354;50.194;7.690;2023-03-23T12:44:10;14.50;99.90
18450;DHT22;9354;50.194;7.690;2023-03-23T12:47:24;14.60;99.90
18450;DHT22;9354;50.194;7.690;2023-03-23T12:49:58;14.60;99.90
18450;DHT22;9354;50.194;7.690;2023-03-23T12:52:33;14.70;99.90
18450;DHT22;9354;50.194;7.690;2023-03-23T12:55:06;14.80;99.90
18450;DHT22;9354;50.194;7.690;2023-03-23T12:57:43;14.90;99.90
18450;DHT22;9354;50.194;7.690;2023-03-23T13:00:17;14.90;99.90
18450;DHT22;9354;50.194;7.690;2023-03-23T13:02:52;15.00;99.90
18450;DHT22;9354;50.194;7.690;2023-03-23T13:05:35;15.20;99.90
18450;DHT22;9354;50.194;7.690;2023-03-23T13:08:08;15.20;99.90
18450;DHT22;9354;50.194;7.690;2023-03-23T13:10:41;15.20;99.90
18450;DHT22;9354;50.194;7.690;2023-03-23T13:13:14;15.10;99.90
18450;DHT22;9354;50.194;7.690;2023-03-23T13:15:51;15.00;99.90
18450;DHT22;9354;50.194;7.690;2023-03-23T13:18:27;14.90;99.90
18450;DHT22;9354;50.194;7.690;2023-03-23T13:21:08;14.90;99.90
18450;DHT22;9354;50.194;7.690;2023-03-23T13:23:41;14.90;99.90
18450;DHT22;9354;50.194;7.690;2023-03-23T13:26:12;14.90;99.90
18450;DHT22;9354;50.194;7.690;2023-03-23T13:28:53;14.90;99.90
18450;DHT22;9354;50.194;7.690;2023-03-23T13:31:22;14.90;99.90
18450;DHT22;9354;50.194;7.690;2023-03-23T13:34:02;14.80;99.90
18450;DHT22;9354;50.194;7.690;2023-03-23T13:36:35;14.70;99.90
18450;DHT22;9354;50.194;7.690;2023-03-23T13:39:04;14.70;99.90
18450;DHT22;9354;50.194;7.690;2023-03-23T13:41:34;14.60;99.90
18450;DHT22;9354;50.194;7.690;2023-03-23T13:44:18;14.50;99.90
18450;DHT22;9354;50.194;7.690;2023-03-23T13:46:57;14.40;99.90
18450;DHT22;9354;50.194;7.690;2023-03-23T13:49:25;14.30;99.90
18450;DHT22;9354;50.194;7.690;2023-03-23T13:52:14;14.30;99.90
18450;DHT22;9354;50.194;7.690;2023-03-23T13:54:44;14.30;99.90
18450;DHT22;9354;50.194;7.690;2023-03-23T13:57:33;14.20;99.90
18450;DHT22;9354;50.194;7.690;2023-03-23T14:00:24;14.20;99.90
18450;DHT22;9354;50.194;7.690;2023-03-23T14:02:58;14.20;99.90
18450;DHT22;9354;50.194;7.690;2023-03-23T14:05:32;14.10;99.90
18450;DHT22;9354;50.194;7.690;2023-03-23T14:08:09;14.10;99.90
18450;DHT22;9354;50.194;7.690;2023-03-23T14:10:39;14.10;99.90
18450;DHT22;9354;50.194;7.690;2023-03-23T14:13:15;14.20;99.90
18450;DHT22;9354;50.194;7.690;2023-03-23T14:15:54;14.20;99.90
18450;DHT22;9354;50.194;7.690;2023-03-23T14:18:25;14.10;99.90
18450;DHT22;9354;50.194;7.690;2023-03-23T14:20:53;14.10;99.90
18450;DHT22;9354;50.194;7.690;2023-03-23T14:23:24;14.10;99.90
18450;DHT22;9354;50.194;7.690;2023-03-23T14:25:55;14.20;99.90
18450;DHT22;9354;50.194;7.690;2023-03-23T14:28:27;14.30;99.90
18450;DHT22;9354;50.194;7.690;2023-03-23T14:30:54;14.30;99.90
18450;DHT22;9354;50.194;7.690;2023-03-23T14:33:25;14.30;99.90
18450;DHT22;9354;50.194;7.690;2023-03-23T14:35:56;14.30;99.90
18450;DHT22;9354;50.194;7.690;2023-03-23T14:38:28;14.20;99.90
18450;DHT22;9354;50.194;7.690;2023-03-23T14:41:02;14.20;99.90
18450;DHT22;9354;50.194;7.690;2023-03-23T14:43:31;14.20;99.90
18450;DHT22;9354;50.194;7.690;2023-03-23T14:46:02;14.30;99.90
18450;DHT22;9354;50.194;7.690;2023-03-23T14:48:32;14.30;99.90
18450;DHT22;9354;50.194;7.690;2023-03-23T14:51:01;14.40;99.90
18450;DHT22;9354;50.194;7.690;2023-03-23T14:53:35;14.40;99.90
18450;DHT22;9354;50.194;7.690;2023-03-23T14:56:09;14.40;99.90
18450;DHT22;9354;50.194;7.690;2023-03-23T14:58:38;14.40;99.90
18450;DHT22;9354;50.194;7.690;2023-03-23T15:01:07;14.30;99.90
18450;DHT22;9354;50.194;7.690;2023-03-23T15:03:40;14.40;99.90
18450;DHT22;9354;50.194;7.690;2023-03-23T15:06:12;14.30;99.90
18450;DHT22;9354;50.194;7.690;2023-03-23T15:08:42;14.30;99.90
18450;DHT22;9354;50.194;7.690;2023-03-23T15:11:13;14.30;99.90
18450;DHT22;9354;50.194;7.690;2023-03-23T15:13:49;14.20;99.90
18450;DHT22;9354;50.194;7.690;2023-03-23T15:16:22;14.20;99.90
18450;DHT22;9354;50.194;7.690;2023-03-23T15:18:54;14.20;99.90
18450;DHT22;9354;50.194;7.690;2023-03-23T15:21:28;14.20;99.90
18450;DHT22;9354;50.194;7.690;2023-03-23T15:23:57;14.20;99.90
18450;DHT22;9354;50.194;7.690;2023-03-23T15:26:28;14.10;99.90
18450;DHT22;9354;50.194;7.690;2023-03-23T15:29:02;14.00;99.90
18450;DHT22;9354;50.194;7.690;2023-03-23T15:31:30;14.10;99.90
18450;DHT22;9354;50.194;7.690;2023-03-23T15:34:02;14.00;99.90
18450;DHT22;9354;50.194;7.690;2023-03-23T15:36:33;14.00;99.90
18450;DHT22;9354;50.194;7.690;2023-03-23T15:39:03;14.00;99.90
18450;DHT22;9354;50.194;7.690;2023-03-23T15:41:32;14.00;99.90
18450;DHT22;9354;50.194;7.690;2023-03-23T15:44:11;14.00;99.90
18450;DHT22;9354;50.194;7.690;2023-03-23T15:46:48;14.00;99.90
18450;DHT22;9354;50.194;7.690;2023-03-23T15:49:17;14.00;99.90
18450;DHT22;9354;50.194;7.690;2023-03-23T15:51:45;14.00;99.90
18450;DHT22;9354;50.194;7.690;2023-03-23T15:54:15;14.00;99.90
18450;DHT22;9354;50.194;7.690;2023-03-23T15:56:43;14.00;99.90
18450;DHT22;9354;50.194;7.690;2023-03-23T15:59:11;14.00;99.90
18450;DHT22;9354;50.194;7.690;2023-03-23T16:01:40;14.00;99.90
18450;DHT22;9354;50.194;7.690;2023-03-23T16:04:10;14.00;99.90
18450;DHT22;9354;50.194;7.690;2023-03-23T16:06:38;14.00;99.90
18450;DHT22;9354;50.194;7.690;2023-03-23T16:09:07;14.00;99.90
18450;DHT22;9354;50.194;7.690;2023-03-23T16:11:37;14.00;99.90
18450;DHT22;9354;50.194;7.690;2023-03-23T16:14:04;13.90;99.90
18450;DHT22;9354;50.194;7.690;2023-03-23T16:16:34;13.90;99.90
18450;DHT22;9354;50.194;7.690;2023-03-23T16:19:03;13.80;99.90
18450;DHT22;9354;50.194;7.690;2023-03-23T16:21:31;13.80;99.90